ěÝzenÝ letovÚho provozu ╚eskÚ republiky
Letiste: LKKV Aktualizace: 17.05.2022 23:27:31  UTC
 SPECI LKKV 17.05. 23:04 ...
SPECI LKKV 172304Z VRB02KT 9999 0700E R29/1200U BCFG NSC 08/07 Q1023=
 TAF LKKV 17.05. 23:00 ...
TAF LKKV 172300Z 1800/1906 VRB02KT 3000 BR NSC      TEMPO 1800/1805 0700 FG SCT001      BECMG 1805/1807 13006KT CAVOK=